Airfield :
LOGIN :

Register | Disclaimer

   EN    FR    IT 

 










Legend :    VFR   Marginal VFR   IFR   Intensive IFR   Very Intensive IFR
Visi :
Ceiling :
>= 8 km
>= 3000ft
5 to 8 km
1000 to 3000 ft
1500m to 5 km
500 to 1000 ft
800 to 1500m
200 to 500 ft
< 800m
< 200 ft
Symbols :   Thunderstorms  Fog  Heavy snow  Heavy precipitations  Wind > 20 kt
SIGMETs :     Misc.  Thunderstorms  Icing  Turbulence  Mountain Waves  Volcanic Ashes







- Airport Elevation : 436 ft
- IATA code : BTS


LZIB - Bratislava

CURRENT METAR :
  • 152030Z 36003KT CAVOK 21/13 Q1013

EXPIRED METARs :
  • 152000Z 36003KT CAVOK 21/13 Q1013
  • 151930Z 35003KT CAVOK 21/13 Q1013
  • 151900Z 33004KT CAVOK 24/12 Q1013
  • 151830Z 35003KT CAVOK 25/12 Q1012
  • 151800Z 36004KT CAVOK 26/12 Q1012 NOSIG

TAF TAF LZIB
Valid from the 15 at 18:00 until the 16 at 18:00 UTC


151700Z 1518/1618 VRB02KT CAVOK
BECMG 1607/1609 27006KT 9999 SCT045
PROB40
TEMPO 1611/1616 28015G25KT -SHRA FEW040CB SCT060
BECMG 1616/1618 CAVOK
No reported NOTAMs for that airfield.



MET'MAP, your aeronautical weather chart ! - Copyright ORBIFLY December 2007 - Disclaimer

ORBIFLY MET'MAP TEAM :

Programming & Development : Alexandra Zaïnal
Concept & Development : Baudouin d'Aumeries
Co-Development & Prog : Marc-Olivier Méhu
Technical & hardware support : Manuel Goepfert

Contact : metmap@orbifly.com




SOURCES & CREDITS :

   NOAA